sensor_id;sensor_type;location;lat;lon;timestamp;P1;durP1;ratioP1;P2;durP2;ratioP2
36351;SDS011;22382;44.768;17.206;2022-10-16T00:01:26;69.25;;;46.00;;
36351;SDS011;22382;44.768;17.206;2022-10-16T00:03:55;79.85;;;48.58;;
36351;SDS011;22382;44.768;17.206;2022-10-16T00:06:23;109.53;;;55.78;;
36351;SDS011;22382;44.768;17.206;2022-10-16T00:08:51;172.02;;;73.63;;
36351;SDS011;22382;44.768;17.206;2022-10-16T00:11:22;151.75;;;69.15;;
36351;SDS011;22382;44.768;17.206;2022-10-16T00:13:54;116.07;;;61.65;;
36351;SDS011;22382;44.768;17.206;2022-10-16T00:16:22;101.65;;;57.60;;
36351;SDS011;22382;44.768;17.206;2022-10-16T00:18:50;85.50;;;51.53;;
36351;SDS011;22382;44.768;17.206;2022-10-16T00:21:18;80.45;;;49.15;;
36351;SDS011;22382;44.768;17.206;2022-10-16T00:23:49;81.75;;;49.35;;
36351;SDS011;22382;44.768;17.206;2022-10-16T00:26:17;77.47;;;46.83;;
36351;SDS011;22382;44.768;17.206;2022-10-16T00:28:48;77.63;;;46.13;;
36351;SDS011;22382;44.768;17.206;2022-10-16T00:31:16;70.63;;;44.75;;
36351;SDS011;22382;44.768;17.206;2022-10-16T00:33:44;74.47;;;46.40;;
36351;SDS011;22382;44.768;17.206;2022-10-16T00:36:13;74.00;;;47.33;;
36351;SDS011;22382;44.768;17.206;2022-10-16T00:38:41;72.25;;;46.50;;
36351;SDS011;22382;44.768;17.206;2022-10-16T00:41:13;71.10;;;45.13;;
36351;SDS011;22382;44.768;17.206;2022-10-16T00:46:14;81.28;;;50.85;;
36351;SDS011;22382;44.768;17.206;2022-10-16T00:48:42;86.70;;;49.80;;
36351;SDS011;22382;44.768;17.206;2022-10-16T00:51:41;81.80;;;46.80;;
36351;SDS011;22382;44.768;17.206;2022-10-16T00:54:13;87.22;;;49.42;;
36351;SDS011;22382;44.768;17.206;2022-10-16T00:56:44;77.13;;;47.80;;
36351;SDS011;22382;44.768;17.206;2022-10-16T00:59:19;73.95;;;46.88;;
36351;SDS011;22382;44.768;17.206;2022-10-16T01:01:52;76.15;;;47.15;;
36351;SDS011;22382;44.768;17.206;2022-10-16T01:04:20;71.70;;;46.50;;
36351;SDS011;22382;44.768;17.206;2022-10-16T01:20:35;64.75;;;42.25;;
36351;SDS011;22382;44.768;17.206;2022-10-16T01:29:25;63.08;;;40.10;;
36351;SDS011;22382;44.768;17.206;2022-10-16T01:31:44;61.67;;;39.50;;
36351;SDS011;22382;44.768;17.206;2022-10-16T01:36:49;59.42;;;38.75;;
36351;SDS011;22382;44.768;17.206;2022-10-16T01:39:20;57.75;;;38.30;;
36351;SDS011;22382;44.768;17.206;2022-10-16T01:44:45;56.60;;;38.38;;
36351;SDS011;22382;44.768;17.206;2022-10-16T01:47:14;60.20;;;39.08;;
36351;SDS011;22382;44.768;17.206;2022-10-16T01:49:43;60.30;;;39.22;;
36351;SDS011;22382;44.768;17.206;2022-10-16T01:52:16;59.17;;;38.88;;
36351;SDS011;22382;44.768;17.206;2022-10-16T01:54:47;62.53;;;40.00;;
36351;SDS011;22382;44.768;17.206;2022-10-16T01:57:16;59.90;;;39.85;;
36351;SDS011;22382;44.768;17.206;2022-10-16T01:59:46;56.22;;;37.50;;
36351;SDS011;22382;44.768;17.206;2022-10-16T02:02:16;61.55;;;37.20;;
36351;SDS011;22382;44.768;17.206;2022-10-16T02:04:46;56.28;;;37.05;;
36351;SDS011;22382;44.768;17.206;2022-10-16T02:07:18;59.17;;;37.03;;
36351;SDS011;22382;44.768;17.206;2022-10-16T02:09:44;55.10;;;37.22;;
36351;SDS011;22382;44.768;17.206;2022-10-16T02:12:23;65.03;;;40.97;;
36351;SDS011;22382;44.768;17.206;2022-10-16T02:14:54;62.88;;;38.38;;
36351;SDS011;22382;44.768;17.206;2022-10-16T02:17:21;57.53;;;36.45;;
36351;SDS011;22382;44.768;17.206;2022-10-16T02:19:48;57.00;;;36.00;;
36351;SDS011;22382;44.768;17.206;2022-10-16T02:25:04;52.22;;;35.00;;
36351;SDS011;22382;44.768;17.206;2022-10-16T02:30:17;52.00;;;33.97;;
36351;SDS011;22382;44.768;17.206;2022-10-16T02:32:50;56.30;;;35.58;;
36351;SDS011;22382;44.768;17.206;2022-10-16T02:35:18;53.22;;;35.30;;
36351;SDS011;22382;44.768;17.206;2022-10-16T02:37:47;55.70;;;34.90;;
36351;SDS011;22382;44.768;17.206;2022-10-16T02:40:16;52.65;;;35.00;;
36351;SDS011;22382;44.768;17.206;2022-10-16T02:42:50;53.03;;;33.53;;
36351;SDS011;22382;44.768;17.206;2022-10-16T02:45:19;53.20;;;35.80;;
36351;SDS011;22382;44.768;17.206;2022-10-16T02:47:46;53.25;;;35.72;;
36351;SDS011;22382;44.768;17.206;2022-10-16T02:50:13;53.40;;;34.75;;
36351;SDS011;22382;44.768;17.206;2022-10-16T02:52:40;50.33;;;33.95;;
36351;SDS011;22382;44.768;17.206;2022-10-16T02:55:07;51.78;;;34.17;;
36351;SDS011;22382;44.768;17.206;2022-10-16T02:57:34;49.33;;;33.22;;
36351;SDS011;22382;44.768;17.206;2022-10-16T03:00:04;52.45;;;33.78;;
36351;SDS011;22382;44.768;17.206;2022-10-16T03:02:31;52.92;;;33.90;;
36351;SDS011;22382;44.768;17.206;2022-10-16T03:04:58;50.35;;;33.42;;
36351;SDS011;22382;44.768;17.206;2022-10-16T03:07:25;51.38;;;34.30;;
36351;SDS011;22382;44.768;17.206;2022-10-16T03:09:52;48.78;;;32.67;;
36351;SDS011;22382;44.768;17.206;2022-10-16T03:12:21;50.60;;;33.63;;
36351;SDS011;22382;44.768;17.206;2022-10-16T03:14:48;46.67;;;32.83;;
36351;SDS011;22382;44.768;17.206;2022-10-16T03:17:15;49.45;;;32.78;;
36351;SDS011;22382;44.768;17.206;2022-10-16T03:19:43;48.40;;;32.40;;
36351;SDS011;22382;44.768;17.206;2022-10-16T03:22:10;46.97;;;32.03;;
36351;SDS011;22382;44.768;17.206;2022-10-16T03:24:37;49.03;;;31.60;;
36351;SDS011;22382;44.768;17.206;2022-10-16T03:27:04;47.05;;;30.80;;
36351;SDS011;22382;44.768;17.206;2022-10-16T03:29:32;49.25;;;30.77;;
36351;SDS011;22382;44.768;17.206;2022-10-16T03:31:59;45.38;;;29.95;;
36351;SDS011;22382;44.768;17.206;2022-10-16T03:34:26;49.75;;;31.50;;
36351;SDS011;22382;44.768;17.206;2022-10-16T03:36:54;47.25;;;29.23;;
36351;SDS011;22382;44.768;17.206;2022-10-16T03:39:21;47.30;;;29.08;;
36351;SDS011;22382;44.768;17.206;2022-10-16T03:41:48;46.45;;;32.05;;
36351;SDS011;22382;44.768;17.206;2022-10-16T03:44:15;47.83;;;32.08;;
36351;SDS011;22382;44.768;17.206;2022-10-16T03:46:42;49.97;;;31.52;;
36351;SDS011;22382;44.768;17.206;2022-10-16T03:49:09;40.45;;;28.40;;
36351;SDS011;22382;44.768;17.206;2022-10-16T03:51:36;41.30;;;29.08;;
36351;SDS011;22382;44.768;17.206;2022-10-16T03:54:03;43.45;;;30.58;;
36351;SDS011;22382;44.768;17.206;2022-10-16T03:56:30;49.97;;;29.17;;
36351;SDS011;22382;44.768;17.206;2022-10-16T03:58:57;43.67;;;28.63;;
36351;SDS011;22382;44.768;17.206;2022-10-16T04:01:24;40.10;;;28.00;;
36351;SDS011;22382;44.768;17.206;2022-10-16T04:03:51;42.90;;;29.05;;
36351;SDS011;22382;44.768;17.206;2022-10-16T04:06:18;41.13;;;27.63;;
36351;SDS011;22382;44.768;17.206;2022-10-16T04:08:45;41.13;;;27.23;;
36351;SDS011;22382;44.768;17.206;2022-10-16T04:11:12;39.67;;;27.83;;
36351;SDS011;22382;44.768;17.206;2022-10-16T04:13:39;40.00;;;27.80;;
36351;SDS011;22382;44.768;17.206;2022-10-16T04:16:06;39.55;;;27.08;;
36351;SDS011;22382;44.768;17.206;2022-10-16T04:18:33;41.30;;;27.30;;
36351;SDS011;22382;44.768;17.206;2022-10-16T04:21:02;42.80;;;27.77;;
36351;SDS011;22382;44.768;17.206;2022-10-16T04:23:32;39.03;;;26.00;;
36351;SDS011;22382;44.768;17.206;2022-10-16T04:25:59;34.90;;;24.85;;
36351;SDS011;22382;44.768;17.206;2022-10-16T04:28:27;39.90;;;27.38;;
36351;SDS011;22382;44.768;17.206;2022-10-16T04:30:54;37.50;;;25.75;;
36351;SDS011;22382;44.768;17.206;2022-10-16T04:33:21;38.65;;;26.95;;
36351;SDS011;22382;44.768;17.206;2022-10-16T04:35:55;42.15;;;27.67;;
36351;SDS011;22382;44.768;17.206;2022-10-16T04:38:23;39.72;;;27.15;;
36351;SDS011;22382;44.768;17.206;2022-10-16T04:40:50;40.65;;;27.00;;
36351;SDS011;22382;44.768;17.206;2022-10-16T04:43:17;38.72;;;25.92;;
36351;SDS011;22382;44.768;17.206;2022-10-16T04:45:45;42.03;;;27.13;;
36351;SDS011;22382;44.768;17.206;2022-10-16T04:48:12;36.92;;;25.70;;
36351;SDS011;22382;44.768;17.206;2022-10-16T04:50:39;38.88;;;26.58;;
36351;SDS011;22382;44.768;17.206;2022-10-16T04:53:07;41.75;;;25.67;;
36351;SDS011;22382;44.768;17.206;2022-10-16T04:55:34;41.33;;;27.40;;
36351;SDS011;22382;44.768;17.206;2022-10-16T04:58:01;41.13;;;27.70;;
36351;SDS011;22382;44.768;17.206;2022-10-16T05:00:28;39.25;;;26.08;;
36351;SDS011;22382;44.768;17.206;2022-10-16T05:02:55;48.20;;;28.38;;
36351;SDS011;22382;44.768;17.206;2022-10-16T05:05:22;38.58;;;25.83;;
36351;SDS011;22382;44.768;17.206;2022-10-16T05:07:49;45.90;;;29.73;;
36351;SDS011;22382;44.768;17.206;2022-10-16T05:10:16;49.35;;;30.33;;
36351;SDS011;22382;44.768;17.206;2022-10-16T05:12:43;46.42;;;28.98;;
36351;SDS011;22382;44.768;17.206;2022-10-16T05:15:10;41.55;;;28.80;;
36351;SDS011;22382;44.768;17.206;2022-10-16T05:17:37;44.45;;;27.55;;
36351;SDS011;22382;44.768;17.206;2022-10-16T05:20:10;49.90;;;31.52;;
36351;SDS011;22382;44.768;17.206;2022-10-16T05:22:37;55.47;;;29.48;;
36351;SDS011;22382;44.768;17.206;2022-10-16T05:25:04;39.10;;;25.88;;
36351;SDS011;22382;44.768;17.206;2022-10-16T05:27:32;48.97;;;28.50;;
36351;SDS011;22382;44.768;17.206;2022-10-16T05:29:59;39.97;;;26.70;;
36351;SDS011;22382;44.768;17.206;2022-10-16T05:32:26;38.88;;;26.10;;
36351;SDS011;22382;44.768;17.206;2022-10-16T05:34:52;42.03;;;26.05;;
36351;SDS011;22382;44.768;17.206;2022-10-16T05:37:19;45.20;;;28.40;;
36351;SDS011;22382;44.768;17.206;2022-10-16T05:39:46;41.10;;;26.67;;
36351;SDS011;22382;44.768;17.206;2022-10-16T05:42:13;38.90;;;26.48;;
36351;SDS011;22382;44.768;17.206;2022-10-16T05:44:41;41.47;;;26.77;;
36351;SDS011;22382;44.768;17.206;2022-10-16T05:47:08;41.50;;;27.42;;
36351;SDS011;22382;44.768;17.206;2022-10-16T05:49:34;44.72;;;29.25;;
36351;SDS011;22382;44.768;17.206;2022-10-16T05:52:06;39.17;;;27.60;;
36351;SDS011;22382;44.768;17.206;2022-10-16T05:54:33;44.40;;;29.65;;
36351;SDS011;22382;44.768;17.206;2022-10-16T05:57:00;41.40;;;28.38;;
36351;SDS011;22382;44.768;17.206;2022-10-16T05:59:28;47.75;;;28.90;;
36351;SDS011;22382;44.768;17.206;2022-10-16T06:01:56;42.00;;;28.50;;
36351;SDS011;22382;44.768;17.206;2022-10-16T06:04:23;36.92;;;26.48;;
36351;SDS011;22382;44.768;17.206;2022-10-16T06:06:50;39.60;;;26.35;;
36351;SDS011;22382;44.768;17.206;2022-10-16T06:09:17;39.15;;;25.65;;
36351;SDS011;22382;44.768;17.206;2022-10-16T06:11:44;40.22;;;25.50;;
36351;SDS011;22382;44.768;17.206;2022-10-16T06:14:10;38.40;;;26.15;;
36351;SDS011;22382;44.768;17.206;2022-10-16T06:16:38;46.03;;;31.90;;
36351;SDS011;22382;44.768;17.206;2022-10-16T06:19:05;46.47;;;30.30;;
36351;SDS011;22382;44.768;17.206;2022-10-16T06:21:34;53.15;;;34.58;;
36351;SDS011;22382;44.768;17.206;2022-10-16T06:24:01;44.33;;;30.42;;
36351;SDS011;22382;44.768;17.206;2022-10-16T06:26:29;52.45;;;32.45;;
36351;SDS011;22382;44.768;17.206;2022-10-16T06:28:57;48.50;;;30.50;;
36351;SDS011;22382;44.768;17.206;2022-10-16T06:31:25;42.75;;;28.15;;
36351;SDS011;22382;44.768;17.206;2022-10-16T06:33:54;44.08;;;29.63;;
36351;SDS011;22382;44.768;17.206;2022-10-16T06:36:21;46.53;;;31.33;;
36351;SDS011;22382;44.768;17.206;2022-10-16T06:38:49;45.33;;;29.35;;
36351;SDS011;22382;44.768;17.206;2022-10-16T06:41:17;42.15;;;28.58;;
36351;SDS011;22382;44.768;17.206;2022-10-16T06:43:45;43.00;;;29.48;;
36351;SDS011;22382;44.768;17.206;2022-10-16T06:46:14;48.83;;;30.65;;
36351;SDS011;22382;44.768;17.206;2022-10-16T06:48:43;47.05;;;33.22;;
36351;SDS011;22382;44.768;17.206;2022-10-16T06:51:11;50.95;;;35.05;;
36351;SDS011;22382;44.768;17.206;2022-10-16T06:53:49;56.90;;;37.00;;
36351;SDS011;22382;44.768;17.206;2022-10-16T06:56:33;54.13;;;35.72;;
36351;SDS011;22382;44.768;17.206;2022-10-16T06:59:02;55.25;;;38.88;;
36351;SDS011;22382;44.768;17.206;2022-10-16T07:01:30;59.97;;;38.15;;
36351;SDS011;22382;44.768;17.206;2022-10-16T07:03:57;53.72;;;36.63;;
36351;SDS011;22382;44.768;17.206;2022-10-16T07:06:25;52.88;;;37.40;;
36351;SDS011;22382;44.768;17.206;2022-10-16T07:08:53;50.03;;;35.25;;
36351;SDS011;22382;44.768;17.206;2022-10-16T07:11:20;52.28;;;34.10;;
36351;SDS011;22382;44.768;17.206;2022-10-16T07:13:49;48.70;;;34.70;;
36351;SDS011;22382;44.768;17.206;2022-10-16T07:16:22;53.77;;;35.50;;
36351;SDS011;22382;44.768;17.206;2022-10-16T07:18:51;48.80;;;35.25;;
36351;SDS011;22382;44.768;17.206;2022-10-16T07:21:24;46.83;;;33.25;;
36351;SDS011;22382;44.768;17.206;2022-10-16T07:23:53;52.55;;;33.03;;
36351;SDS011;22382;44.768;17.206;2022-10-16T07:26:22;51.13;;;33.17;;
36351;SDS011;22382;44.768;17.206;2022-10-16T07:28:50;48.95;;;33.38;;
36351;SDS011;22382;44.768;17.206;2022-10-16T07:31:18;48.92;;;32.67;;
36351;SDS011;22382;44.768;17.206;2022-10-16T07:33:46;52.05;;;32.78;;
36351;SDS011;22382;44.768;17.206;2022-10-16T07:36:17;68.15;;;38.40;;
36351;SDS011;22382;44.768;17.206;2022-10-16T07:38:46;110.43;;;52.65;;
36351;SDS011;22382;44.768;17.206;2022-10-16T07:41:14;116.18;;;54.40;;
36351;SDS011;22382;44.768;17.206;2022-10-16T07:43:47;126.57;;;58.88;;
36351;SDS011;22382;44.768;17.206;2022-10-16T07:46:15;98.53;;;48.55;;
36351;SDS011;22382;44.768;17.206;2022-10-16T07:48:43;80.88;;;41.40;;
36351;SDS011;22382;44.768;17.206;2022-10-16T07:51:15;98.88;;;47.75;;
36351;SDS011;22382;44.768;17.206;2022-10-16T07:53:43;101.88;;;52.65;;
36351;SDS011;22382;44.768;17.206;2022-10-16T07:56:10;95.75;;;48.15;;
36351;SDS011;22382;44.768;17.206;2022-10-16T07:58:38;98.43;;;51.60;;
36351;SDS011;22382;44.768;17.206;2022-10-16T08:01:06;85.72;;;45.10;;
36351;SDS011;22382;44.768;17.206;2022-10-16T08:03:35;83.43;;;44.42;;
36351;SDS011;22382;44.768;17.206;2022-10-16T08:06:02;71.55;;;41.88;;
36351;SDS011;22382;44.768;17.206;2022-10-16T08:08:30;58.10;;;34.55;;
36351;SDS011;22382;44.768;17.206;2022-10-16T08:10:57;54.55;;;31.90;;
36351;SDS011;22382;44.768;17.206;2022-10-16T08:13:25;47.67;;;28.52;;
36351;SDS011;22382;44.768;17.206;2022-10-16T08:15:53;66.18;;;30.25;;
36351;SDS011;22382;44.768;17.206;2022-10-16T08:18:20;61.15;;;31.83;;
36351;SDS011;22382;44.768;17.206;2022-10-16T08:20:54;63.28;;;32.80;;
36351;SDS011;22382;44.768;17.206;2022-10-16T08:23:23;101.95;;;48.15;;
36351;SDS011;22382;44.768;17.206;2022-10-16T08:25:52;90.25;;;45.65;;
36351;SDS011;22382;44.768;17.206;2022-10-16T08:28:20;85.28;;;43.70;;
36351;SDS011;22382;44.768;17.206;2022-10-16T08:30:49;71.10;;;36.90;;
36351;SDS011;22382;44.768;17.206;2022-10-16T08:33:16;80.07;;;42.42;;
36351;SDS011;22382;44.768;17.206;2022-10-16T08:35:43;83.85;;;44.15;;
36351;SDS011;22382;44.768;17.206;2022-10-16T08:38:17;82.20;;;42.30;;
36351;SDS011;22382;44.768;17.206;2022-10-16T08:40:44;79.10;;;44.08;;
36351;SDS011;22382;44.768;17.206;2022-10-16T08:48:53;65.30;;;38.08;;
36351;SDS011;22382;44.768;17.206;2022-10-16T08:51:32;51.92;;;30.05;;
36351;SDS011;22382;44.768;17.206;2022-10-16T08:54:55;49.03;;;30.15;;
36351;SDS011;22382;44.768;17.206;2022-10-16T08:57:16;47.63;;;30.27;;
36351;SDS011;22382;44.768;17.206;2022-10-16T08:59:49;32.45;;;21.42;;
36351;SDS011;22382;44.768;17.206;2022-10-16T09:02:30;38.15;;;25.38;;
36351;SDS011;22382;44.768;17.206;2022-10-16T09:21:26;35.03;;;22.80;;
36351;SDS011;22382;44.768;17.206;2022-10-16T09:24:12;35.97;;;23.48;;
36351;SDS011;22382;44.768;17.206;2022-10-16T09:26:40;40.72;;;24.10;;
36351;SDS011;22382;44.768;17.206;2022-10-16T09:29:14;42.60;;;24.63;;
36351;SDS011;22382;44.768;17.206;2022-10-16T09:31:43;31.73;;;21.27;;
36351;SDS011;22382;44.768;17.206;2022-10-16T09:34:45;38.13;;;25.67;;
36351;SDS011;22382;44.768;17.206;2022-10-16T09:37:12;47.95;;;27.83;;
36351;SDS011;22382;44.768;17.206;2022-10-16T09:39:45;36.58;;;22.70;;
36351;SDS011;22382;44.768;17.206;2022-10-16T09:42:35;41.17;;;23.77;;
36351;SDS011;22382;44.768;17.206;2022-10-16T09:45:02;33.80;;;22.38;;
36351;SDS011;22382;44.768;17.206;2022-10-16T09:47:31;35.60;;;23.15;;
36351;SDS011;22382;44.768;17.206;2022-10-16T09:50:02;28.63;;;20.60;;
36351;SDS011;22382;44.768;17.206;2022-10-16T09:55:15;29.40;;;20.83;;
36351;SDS011;22382;44.768;17.206;2022-10-16T10:00:18;25.98;;;18.88;;
36351;SDS011;22382;44.768;17.206;2022-10-16T10:02:46;28.48;;;19.92;;
36351;SDS011;22382;44.768;17.206;2022-10-16T10:05:18;26.02;;;18.35;;
36351;SDS011;22382;44.768;17.206;2022-10-16T10:07:59;29.25;;;19.67;;
36351;SDS011;22382;44.768;17.206;2022-10-16T10:10:41;32.00;;;20.50;;
36351;SDS011;22382;44.768;17.206;2022-10-16T10:13:19;27.55;;;19.27;;
36351;SDS011;22382;44.768;17.206;2022-10-16T10:15:47;27.50;;;19.55;;
36351;SDS011;22382;44.768;17.206;2022-10-16T10:18:16;25.48;;;18.23;;
36351;SDS011;22382;44.768;17.206;2022-10-16T10:20:59;31.45;;;19.75;;
36351;SDS011;22382;44.768;17.206;2022-10-16T10:23:28;24.98;;;18.55;;
36351;SDS011;22382;44.768;17.206;2022-10-16T10:40:22;25.23;;;17.50;;
36351;SDS011;22382;44.768;17.206;2022-10-16T10:43:12;21.63;;;17.08;;
36351;SDS011;22382;44.768;17.206;2022-10-16T10:45:55;23.42;;;17.08;;
36351;SDS011;22382;44.768;17.206;2022-10-16T10:51:06;22.50;;;18.25;;
36351;SDS011;22382;44.768;17.206;2022-10-16T11:08:04;21.52;;;16.70;;
36351;SDS011;22382;44.768;17.206;2022-10-16T11:15:54;23.60;;;16.88;;
36351;SDS011;22382;44.768;17.206;2022-10-16T11:18:40;20.20;;;16.20;;
36351;SDS011;22382;44.768;17.206;2022-10-16T11:21:30;23.13;;;15.73;;
36351;SDS011;22382;44.768;17.206;2022-10-16T11:24:08;23.45;;;16.27;;
36351;SDS011;22382;44.768;17.206;2022-10-16T11:26:47;22.95;;;17.05;;
36351;SDS011;22382;44.768;17.206;2022-10-16T11:29:25;22.88;;;17.05;;
36351;SDS011;22382;44.768;17.206;2022-10-16T11:32:05;22.45;;;16.80;;
36351;SDS011;22382;44.768;17.206;2022-10-16T11:34:43;20.40;;;15.68;;
36351;SDS011;22382;44.768;17.206;2022-10-16T11:37:19;20.73;;;17.02;;
36351;SDS011;22382;44.768;17.206;2022-10-16T11:39:54;26.27;;;16.73;;
36351;SDS011;22382;44.768;17.206;2022-10-16T11:42:33;27.88;;;17.95;;
36351;SDS011;22382;44.768;17.206;2022-10-16T11:47:33;19.88;;;16.38;;
36351;SDS011;22382;44.768;17.206;2022-10-16T11:50:26;21.15;;;17.25;;
36351;SDS011;22382;44.768;17.206;2022-10-16T11:53:31;23.38;;;16.63;;
36351;SDS011;22382;44.768;17.206;2022-10-16T11:56:07;24.55;;;17.42;;
36351;SDS011;22382;44.768;17.206;2022-10-16T11:58:39;21.52;;;17.45;;
36351;SDS011;22382;44.768;17.206;2022-10-16T12:08:59;21.55;;;16.63;;
36351;SDS011;22382;44.768;17.206;2022-10-16T12:16:50;24.50;;;17.60;;
36351;SDS011;22382;44.768;17.206;2022-10-16T12:19:22;20.63;;;17.15;;
36351;SDS011;22382;44.768;17.206;2022-10-16T12:21:51;24.67;;;17.95;;
36351;SDS011;22382;44.768;17.206;2022-10-16T12:24:21;20.10;;;16.23;;
36351;SDS011;22382;44.768;17.206;2022-10-16T12:26:57;22.60;;;16.77;;
36351;SDS011;22382;44.768;17.206;2022-10-16T12:29:38;28.42;;;17.38;;
36351;SDS011;22382;44.768;17.206;2022-10-16T12:35:17;24.00;;;16.95;;
36351;SDS011;22382;44.768;17.206;2022-10-16T12:37:50;23.88;;;17.63;;
36351;SDS011;22382;44.768;17.206;2022-10-16T12:40:31;26.00;;;17.15;;
36351;SDS011;22382;44.768;17.206;2022-10-16T12:45:37;25.05;;;18.38;;
36351;SDS011;22382;44.768;17.206;2022-10-16T12:48:17;21.98;;;17.55;;
36351;SDS011;22382;44.768;17.206;2022-10-16T12:50:46;26.33;;;17.90;;
36351;SDS011;22382;44.768;17.206;2022-10-16T12:53:24;21.77;;;17.58;;
36351;SDS011;22382;44.768;17.206;2022-10-16T13:07:17;22.77;;;17.75;;
36351;SDS011;22382;44.768;17.206;2022-10-16T13:15:28;26.35;;;18.23;;
36351;SDS011;22382;44.768;17.206;2022-10-16T13:18:22;27.42;;;17.90;;
36351;SDS011;22382;44.768;17.206;2022-10-16T13:23:42;24.58;;;18.98;;
36351;SDS011;22382;44.768;17.206;2022-10-16T13:29:09;22.05;;;18.15;;
36351;SDS011;22382;44.768;17.206;2022-10-16T13:31:37;22.15;;;17.58;;
36351;SDS011;22382;44.768;17.206;2022-10-16T13:34:05;23.95;;;18.20;;
36351;SDS011;22382;44.768;17.206;2022-10-16T13:36:44;25.45;;;18.75;;
36351;SDS011;22382;44.768;17.206;2022-10-16T13:39:26;24.13;;;19.08;;
36351;SDS011;22382;44.768;17.206;2022-10-16T13:42:01;25.77;;;18.67;;
36351;SDS011;22382;44.768;17.206;2022-10-16T13:44:36;23.88;;;18.75;;
36351;SDS011;22382;44.768;17.206;2022-10-16T13:47:15;32.45;;;18.77;;
36351;SDS011;22382;44.768;17.206;2022-10-16T13:50:06;31.40;;;20.17;;
36351;SDS011;22382;44.768;17.206;2022-10-16T13:52:38;25.17;;;18.67;;
36351;SDS011;22382;44.768;17.206;2022-10-16T13:55:12;25.65;;;18.88;;
36351;SDS011;22382;44.768;17.206;2022-10-16T13:57:43;24.10;;;18.83;;
36351;SDS011;22382;44.768;17.206;2022-10-16T14:02:55;26.63;;;19.60;;
36351;SDS011;22382;44.768;17.206;2022-10-16T14:05:27;28.95;;;19.98;;
36351;SDS011;22382;44.768;17.206;2022-10-16T14:07:55;29.48;;;20.17;;
36351;SDS011;22382;44.768;17.206;2022-10-16T14:10:25;25.52;;;19.83;;
36351;SDS011;22382;44.768;17.206;2022-10-16T14:13:01;25.65;;;19.85;;
36351;SDS011;22382;44.768;17.206;2022-10-16T14:15:31;26.02;;;20.40;;
36351;SDS011;22382;44.768;17.206;2022-10-16T14:18:00;29.23;;;20.65;;
36351;SDS011;22382;44.768;17.206;2022-10-16T14:20:30;28.73;;;21.75;;
36351;SDS011;22382;44.768;17.206;2022-10-16T14:23:00;30.00;;;20.58;;
36351;SDS011;22382;44.768;17.206;2022-10-16T14:25:44;27.85;;;19.10;;
36351;SDS011;22382;44.768;17.206;2022-10-16T14:28:21;26.35;;;19.67;;
36351;SDS011;22382;44.768;17.206;2022-10-16T14:30:50;24.98;;;18.92;;
36351;SDS011;22382;44.768;17.206;2022-10-16T14:38:37;24.60;;;18.25;;
36351;SDS011;22382;44.768;17.206;2022-10-16T14:41:06;21.52;;;17.73;;
36351;SDS011;22382;44.768;17.206;2022-10-16T14:43:37;23.40;;;18.42;;
36351;SDS011;22382;44.768;17.206;2022-10-16T14:46:06;24.02;;;17.05;;
36351;SDS011;22382;44.768;17.206;2022-10-16T14:48:44;23.40;;;17.90;;
36351;SDS011;22382;44.768;17.206;2022-10-16T14:51:17;24.30;;;17.70;;
36351;SDS011;22382;44.768;17.206;2022-10-16T14:53:45;25.42;;;17.67;;
36351;SDS011;22382;44.768;17.206;2022-10-16T14:56:34;22.40;;;17.60;;
36351;SDS011;22382;44.768;17.206;2022-10-16T14:59:09;25.30;;;17.85;;
36351;SDS011;22382;44.768;17.206;2022-10-16T15:01:51;22.98;;;16.88;;
36351;SDS011;22382;44.768;17.206;2022-10-16T15:04:18;23.35;;;17.25;;
36351;SDS011;22382;44.768;17.206;2022-10-16T15:06:45;25.00;;;18.30;;
36351;SDS011;22382;44.768;17.206;2022-10-16T15:09:12;24.40;;;17.13;;
36351;SDS011;22382;44.768;17.206;2022-10-16T15:11:39;23.00;;;16.70;;
36351;SDS011;22382;44.768;17.206;2022-10-16T15:14:13;20.85;;;16.42;;
36351;SDS011;22382;44.768;17.206;2022-10-16T15:16:45;22.17;;;17.65;;
36351;SDS011;22382;44.768;17.206;2022-10-16T15:19:12;24.23;;;17.58;;
36351;SDS011;22382;44.768;17.206;2022-10-16T15:21:39;32.47;;;21.30;;
36351;SDS011;22382;44.768;17.206;2022-10-16T15:24:08;27.20;;;18.60;;
36351;SDS011;22382;44.768;17.206;2022-10-16T15:26:43;32.00;;;20.63;;
36351;SDS011;22382;44.768;17.206;2022-10-16T15:29:12;31.10;;;20.35;;
36351;SDS011;22382;44.768;17.206;2022-10-16T15:31:39;32.47;;;22.40;;
36351;SDS011;22382;44.768;17.206;2022-10-16T15:34:09;29.88;;;22.10;;
36351;SDS011;22382;44.768;17.206;2022-10-16T15:36:37;26.23;;;21.60;;
36351;SDS011;22382;44.768;17.206;2022-10-16T15:39:05;30.23;;;21.27;;
36351;SDS011;22382;44.768;17.206;2022-10-16T15:41:38;31.33;;;22.52;;
36351;SDS011;22382;44.768;17.206;2022-10-16T15:44:10;32.65;;;22.63;;
36351;SDS011;22382;44.768;17.206;2022-10-16T15:46:37;33.17;;;24.45;;
36351;SDS011;22382;44.768;17.206;2022-10-16T15:49:04;31.92;;;24.35;;
36351;SDS011;22382;44.768;17.206;2022-10-16T15:51:31;33.17;;;23.63;;
36351;SDS011;22382;44.768;17.206;2022-10-16T15:53:59;31.75;;;22.80;;
36351;SDS011;22382;44.768;17.206;2022-10-16T15:56:28;28.35;;;22.48;;
36351;SDS011;22382;44.768;17.206;2022-10-16T15:58:55;28.17;;;21.33;;
36351;SDS011;22382;44.768;17.206;2022-10-16T16:01:24;32.92;;;24.63;;
36351;SDS011;22382;44.768;17.206;2022-10-16T16:03:54;38.72;;;26.48;;
36351;SDS011;22382;44.768;17.206;2022-10-16T16:06:22;35.83;;;25.75;;
36351;SDS011;22382;44.768;17.206;2022-10-16T16:08:51;35.72;;;24.55;;
36351;SDS011;22382;44.768;17.206;2022-10-16T16:11:19;41.28;;;27.45;;
36351;SDS011;22382;44.768;17.206;2022-10-16T16:13:46;33.40;;;24.90;;
36351;SDS011;22382;44.768;17.206;2022-10-16T16:16:14;38.13;;;25.05;;
36351;SDS011;22382;44.768;17.206;2022-10-16T16:18:42;33.97;;;25.33;;
36351;SDS011;22382;44.768;17.206;2022-10-16T16:21:13;32.55;;;24.98;;
36351;SDS011;22382;44.768;17.206;2022-10-16T16:23:40;35.75;;;26.38;;
36351;SDS011;22382;44.768;17.206;2022-10-16T16:26:11;39.30;;;27.85;;
36351;SDS011;22382;44.768;17.206;2022-10-16T16:28:50;37.85;;;26.15;;
36351;SDS011;22382;44.768;17.206;2022-10-16T16:31:17;39.25;;;27.33;;
36351;SDS011;22382;44.768;17.206;2022-10-16T16:33:44;41.20;;;29.13;;
36351;SDS011;22382;44.768;17.206;2022-10-16T16:36:11;43.97;;;30.30;;
36351;SDS011;22382;44.768;17.206;2022-10-16T16:38:41;42.03;;;30.15;;
36351;SDS011;22382;44.768;17.206;2022-10-16T16:41:15;44.72;;;31.23;;
36351;SDS011;22382;44.768;17.206;2022-10-16T16:43:44;42.08;;;31.30;;
36351;SDS011;22382;44.768;17.206;2022-10-16T16:46:13;42.88;;;29.52;;
36351;SDS011;22382;44.768;17.206;2022-10-16T16:48:41;41.25;;;29.55;;
36351;SDS011;22382;44.768;17.206;2022-10-16T16:51:09;40.67;;;30.15;;
36351;SDS011;22382;44.768;17.206;2022-10-16T16:53:42;46.90;;;30.95;;
36351;SDS011;22382;44.768;17.206;2022-10-16T16:56:10;45.80;;;31.90;;
36351;SDS011;22382;44.768;17.206;2022-10-16T16:58:37;50.08;;;33.33;;